Time;durP1;ratioP1;P1;durP2;ratioP2;P2;SDS_P1;SDS_P2;PMS_P1;PMS_P2;Temp;Humidity;BMP_temperature;BMP_pressure;BME280_temperature;BME280_humidity;BME280_pressure;Samples;Min_cycle;Max_cycle;Signal;HPM_P1;HPM_P2
2023/09/15 00:02:03;;;;;;;7.00;1.50;;;;;;;19.90;74.72;100633.97;5046822;28;20356;-58
2023/09/15 00:04:33;;;;;;;8.67;1.80;;;;;;;19.95;75.46;100637.25;5034553;28;20316;-59
2023/09/15 00:07:04;;;;;;;6.00;1.57;;;;;;;20.11;77.32;100635.53;5038265;28;20286;-58
2023/09/15 00:09:37;;;;;;;3.63;1.53;;;;;;;20.18;78.47;100629.00;5046920;28;20287;-58
2023/09/15 00:12:08;;;;;;;9.23;1.50;;;;;;;20.19;77.34;100620.13;5037175;28;20290;-59
2023/09/15 00:14:39;;;;;;;6.43;1.70;;;;;;;20.26;76.32;100621.50;5046936;28;20652;-58
2023/09/15 00:17:10;;;;;;;14.30;2.47;;;;;;;20.35;74.86;100619.34;5036593;28;20318;-58
2023/09/15 00:19:41;;;;;;;7.87;1.60;;;;;;;20.36;74.69;100618.38;5046972;28;20602;-57
2023/09/15 00:22:12;;;;;;;7.93;2.00;;;;;;;20.42;74.15;100618.09;5037186;28;20307;-58
2023/09/15 00:24:44;;;;;;;9.50;1.90;;;;;;;20.54;75.20;100606.81;5047181;28;20825;-58
2023/09/15 00:27:14;;;;;;;9.37;2.20;;;;;;;20.61;73.63;100600.28;5037547;28;20283;-58
2023/09/15 00:29:45;;;;;;;5.40;1.77;;;;;;;20.67;71.10;100601.78;5046648;28;20287;-59
2023/09/15 00:32:15;;;;;;;6.33;1.70;;;;;;;20.78;71.86;100595.88;5036445;28;20283;-59
2023/09/15 00:34:46;;;;;;;3.43;1.60;;;;;;;20.87;69.90;100600.69;5046439;28;20278;-59
2023/09/15 00:37:20;;;;;;;5.17;1.80;;;;;;;20.98;67.14;100594.81;5036605;28;20279;-59
2023/09/15 00:39:52;;;;;;;6.77;1.60;;;;;;;21.03;65.74;100595.41;5046610;28;20266;-58
2023/09/15 00:42:23;;;;;;;5.43;1.60;;;;;;;21.15;65.58;100588.56;5036600;28;20553;-59
2023/09/15 00:44:54;;;;;;;2.20;1.30;;;;;;;21.26;62.62;100580.84;5046638;28;20300;-58
2023/09/15 00:47:24;;;;;;;3.93;1.20;;;;;;;21.33;62.69;100574.25;5036184;28;20355;-58
2023/09/15 00:49:56;;;;;;;5.50;1.53;;;;;;;21.48;61.64;100576.06;5046663;28;20281;-58
2023/09/15 00:52:27;;;;;;;11.23;1.47;;;;;;;21.58;59.35;100571.06;5035965;28;20274;-60
2023/09/15 00:55:00;;;;;;;5.17;1.40;;;;;;;21.61;57.68;100559.41;5046716;28;20266;-59
2023/09/15 00:57:31;;;;;;;3.80;1.47;;;;;;;21.58;57.57;100570.22;5035991;28;20672;-59
2023/09/15 01:00:02;;;;;;;4.10;1.50;;;;;;;21.65;58.46;100572.44;5045924;28;20364;-58
2023/09/15 01:02:35;;;;;;;5.93;1.90;;;;;;;21.78;60.26;100564.59;5044835;28;20773;-59
2023/09/15 01:05:06;;;;;;;9.63;2.50;;;;;;;21.82;60.51;100574.13;5016789;28;20283;-57
2023/09/15 01:07:37;;;;;;;10.70;2.10;;;;;;;21.78;60.09;100561.94;5026625;28;20353;-60
2023/09/15 01:10:12;;;;;;;13.63;2.37;;;;;;;21.83;60.39;100565.19;5016252;28;20288;-59
2023/09/15 01:12:43;;;;;;;7.10;1.87;;;;;;;21.85;60.42;100554.47;5026803;28;20679;-59
2023/09/15 01:15:13;;;;;;;5.33;1.97;;;;;;;21.86;59.33;100565.00;5025805;28;20283;-58
2023/09/15 01:18:00;;;;;;;9.33;2.00;;;;;;;21.87;58.68;100545.47;5045493;28;20283;-59
2023/09/15 01:20:48;;;;;;;8.57;2.03;;;;;;;21.76;58.58;100524.78;5034651;28;20275;-59
2023/09/15 01:23:44;;;;;;;9.73;2.28;;;;;;;21.99;57.81;100533.25;5034889;28;20289;-59
2023/09/15 01:26:58;;;;;;;13.20;2.67;;;;;;;22.06;58.41;100533.72;5034849;28;20467;-59
2023/09/15 01:29:41;;;;;;;11.13;1.80;;;;;;;21.93;56.58;100513.16;5033739;28;20667;-57
2023/09/15 01:32:13;;;;;;;8.47;2.13;;;;;;;22.05;56.22;100519.56;5035412;28;20370;-59
2023/09/15 01:34:49;;;;;;;9.00;1.73;;;;;;;21.87;55.55;100489.59;5045419;28;20271;-57
2023/09/15 01:37:21;;;;;;;8.77;2.03;;;;;;;22.10;57.46;100530.78;5035388;28;20336;-59
2023/09/15 01:39:52;;;;;;;5.00;1.80;;;;;;;22.19;58.55;100529.38;5045873;28;20048;-59
2023/09/15 01:42:23;;;;;;;10.00;1.70;;;;;;;22.29;57.68;100530.56;5035508;28;20291;-59
2023/09/15 01:44:55;;;;;;;6.50;1.50;;;;;;;22.36;57.94;100531.88;5045604;28;20377;-58
2023/09/15 01:47:27;;;;;;;9.10;2.10;;;;;;;22.47;58.05;100527.72;5034992;28;20045;-59
2023/09/15 01:50:02;;;;;;;10.37;1.80;;;;;;;22.58;57.07;100535.88;5044898;28;20106;-60
2023/09/15 01:52:33;;;;;;;7.43;1.57;;;;;;;22.66;57.04;100533.59;5034445;28;20139;-59
2023/09/15 01:55:04;;;;;;;11.17;1.93;;;;;;;22.55;56.63;100520.09;5039581;28;20467;-59
2023/09/15 01:57:35;;;;;;;10.10;1.63;;;;;;;22.58;57.51;100523.41;5045359;28;20471;-58
2023/09/15 02:00:10;;;;;;;8.47;1.93;;;;;;;22.24;57.13;100463.44;5035224;28;20521;-60
2023/09/15 02:02:40;;;;;;;13.57;1.80;;;;;;;22.72;57.29;100521.72;5044808;28;20046;-59
2023/09/15 02:05:16;;;;;;;4.73;1.40;;;;;;;22.76;57.40;100518.75;5034419;28;20310;-58
2023/09/15 02:07:46;;;;;;;6.77;1.77;;;;;;;22.82;58.24;100510.38;5044933;28;20440;-58
2023/09/15 02:10:17;;;;;;;6.53;1.53;;;;;;;22.60;57.78;100470.06;5034796;28;20051;-59
2023/09/15 02:12:48;;;;;;;5.87;1.40;;;;;;;22.77;58.58;100499.16;5025306;28;20053;-59
2023/09/15 02:15:21;;;;;;;5.73;1.30;;;;;;;22.94;59.82;100511.41;5015650;28;20049;-59
2023/09/15 02:17:52;;;;;;;3.97;1.30;;;;;;;22.91;59.07;100494.75;5025622;28;20060;-58
2023/09/15 02:20:22;;;;;;;4.50;1.20;;;;;;;22.80;60.30;100498.97;5014465;28;20055;-58
2023/09/15 02:22:53;;;;;;;2.67;1.30;;;;;;;22.85;59.89;100501.34;5024897;28;20057;-58
2023/09/15 02:25:23;;;;;;;6.37;1.60;;;;;;;22.89;60.13;100494.00;5014446;28;20393;-58
2023/09/15 02:27:54;;;;;;;7.33;1.53;;;;;;;22.86;59.92;100486.19;5024814;28;20466;-60
2023/09/15 02:30:27;;;;;;;8.53;1.97;;;;;;;22.84;59.89;100483.66;5015120;28;20556;-58
2023/09/15 02:32:57;;;;;;;5.20;1.30;;;;;;;22.81;60.48;100484.69;5024941;28;20037;-59
2023/09/15 02:35:29;;;;;;;4.37;1.40;;;;;;;22.86;60.75;100480.88;5014421;28;20609;-60
2023/09/15 02:37:59;;;;;;;8.67;1.33;;;;;;;23.01;61.68;100474.56;5024317;28;20063;-57
2023/09/15 02:40:30;;;;;;;4.23;1.37;;;;;;;23.08;60.91;100467.91;5014263;28;20074;-58
2023/09/15 02:43:00;;;;;;;5.37;1.27;;;;;;;23.16;60.17;100457.56;5024630;28;20080;-61
2023/09/15 02:45:36;;;;;;;7.93;1.27;;;;;;;23.14;60.10;100446.19;5014432;28;20063;-60
2023/09/15 02:48:07;;;;;;;4.90;1.17;;;;;;;23.07;60.22;100412.91;5014759;28;20057;-60
2023/09/15 02:50:43;;;;;;;2.47;1.00;;;;;;;23.27;58.40;100440.03;5024469;28;20040;-60
2023/09/15 02:53:13;;;;;;;4.83;1.53;;;;;;;23.28;57.89;100449.75;5014858;28;20049;-58
2023/09/15 02:55:44;;;;;;;2.57;0.80;;;;;;;23.29;57.56;100440.78;5024664;28;20476;-58
2023/09/15 02:58:15;;;;;;;2.97;1.57;;;;;;;23.21;56.02;100428.84;5014395;28;20144;-60
2023/09/15 03:00:48;;;;;;;6.37;0.90;;;;;;;23.37;56.14;100439.31;5024364;28;20045;-59
2023/09/15 03:03:19;;;;;;;4.33;1.07;;;;;;;23.38;55.11;100445.50;5018131;28;20048;-59
2023/09/15 03:05:50;;;;;;;3.37;1.60;;;;;;;23.40;55.50;100440.94;5025380;28;20130;-58
2023/09/15 03:08:20;;;;;;;4.53;1.00;;;;;;;23.44;55.11;100434.44;5015365;28;20057;-60
2023/09/15 03:10:51;;;;;;;9.57;1.23;;;;;;;23.44;54.90;100439.78;5029108;28;20049;-59
2023/09/15 03:13:21;;;;;;;5.27;1.03;;;;;;;23.41;54.89;100423.97;5034684;28;20055;-60
2023/09/15 03:15:54;;;;;;;3.07;1.17;;;;;;;23.43;55.67;100424.72;5044403;28;20044;-57
2023/09/15 03:18:24;;;;;;;2.07;0.97;;;;;;;23.42;55.81;100415.03;5034432;28;20430;-60
2023/09/15 03:20:55;;;;;;;4.63;1.13;;;;;;;23.48;55.87;100419.91;5044075;28;20052;-59
2023/09/15 03:23:25;;;;;;;3.73;1.00;;;;;;;23.59;55.53;100417.41;5033630;28;20044;-58
2023/09/15 03:26:01;;;;;;;2.60;1.20;;;;;;;23.58;54.83;100410.34;5044271;28;20696;-58
2023/09/15 03:28:34;;;;;;;3.40;1.10;;;;;;;23.60;55.57;100408.41;5033962;28;20499;-59
2023/09/15 03:31:06;;;;;;;5.83;0.90;;;;;;;23.69;56.38;100412.28;5035316;28;20059;-58
2023/09/15 03:33:36;;;;;;;2.93;1.30;;;;;;;23.70;55.70;100413.97;5044338;28;20497;-59
2023/09/15 03:36:07;;;;;;;1.40;0.80;;;;;;;23.68;56.39;100406.06;5034193;28;20056;-58
2023/09/15 03:38:37;;;;;;;6.77;1.20;;;;;;;23.66;57.06;100397.34;5043933;28;20040;-58
2023/09/15 03:41:08;;;;;;;5.03;1.10;;;;;;;23.38;57.27;100361.03;5033867;28;20053;-59
2023/09/15 03:43:38;;;;;;;5.77;1.13;;;;;;;23.47;57.94;100357.75;5043858;28;20442;-60
2023/09/15 03:46:11;;;;;;;2.50;1.13;;;;;;;23.63;57.48;100386.88;5033393;28;20376;-60
2023/09/15 03:48:42;;;;;;;6.83;1.13;;;;;;;23.57;56.97;100381.97;5044119;28;20481;-60
2023/09/15 03:51:12;;;;;;;4.10;1.00;;;;;;;23.53;57.28;100380.47;5033971;28;20048;-60
2023/09/15 03:53:43;;;;;;;2.77;1.20;;;;;;;23.47;56.38;100379.06;5046673;28;20588;-61
2023/09/15 03:56:13;;;;;;;3.67;1.33;;;;;;;23.40;56.95;100380.44;5037251;28;20064;-60
2023/09/15 03:58:45;;;;;;;3.47;1.23;;;;;;;23.35;57.01;100374.56;5047398;28;20136;-59
2023/09/15 04:01:21;;;;;;;4.97;0.97;;;;;;;23.31;58.08;100380.22;5037401;28;20052;-59
2023/09/15 04:03:51;;;;;;;10.47;1.40;;;;;;;23.37;59.86;100379.81;5047287;28;20064;-60
2023/09/15 04:06:22;;;;;;;5.90;1.23;;;;;;;23.41;59.14;100383.97;5037864;28;20444;-58
2023/09/15 04:08:53;;;;;;;4.57;1.10;;;;;;;23.38;58.92;100381.50;5047663;28;20503;-58
2023/09/15 04:11:23;;;;;;;5.20;1.33;;;;;;;23.42;59.85;100391.03;5036667;28;20049;-61
2023/09/15 04:13:54;;;;;;;3.33;1.00;;;;;;;23.34;58.60;100388.00;5047087;28;20159;-59
2023/09/15 04:16:26;;;;;;;4.43;1.17;;;;;;;23.24;58.50;100385.97;5036888;28;20047;-58
2023/09/15 04:18:57;;;;;;;9.67;1.23;;;;;;;23.11;58.62;100361.06;5046584;28;20139;-60
2023/09/15 04:21:27;;;;;;;8.50;1.40;;;;;;;23.20;58.83;100375.63;5036568;28;20379;-61
2023/09/15 04:23:58;;;;;;;4.60;1.40;;;;;;;23.25;58.99;100382.34;5047407;28;20044;-59
2023/09/15 04:26:28;;;;;;;6.90;1.20;;;;;;;23.30;59.61;100390.03;5036584;28;20058;-58
2023/09/15 04:28:59;;;;;;;6.20;1.30;;;;;;;23.24;57.84;100385.97;5046968;28;20046;-59
2023/09/15 04:31:31;;;;;;;7.07;1.43;;;;;;;23.13;57.83;100388.50;5036189;28;20055;-61
2023/09/15 04:34:02;;;;;;;4.60;1.53;;;;;;;23.16;59.09;100380.28;5046946;28;20056;-59
2023/09/15 04:36:32;;;;;;;4.60;1.07;;;;;;;23.06;58.28;100381.84;5035826;28;20531;-60
2023/09/15 04:39:07;;;;;;;3.20;1.40;;;;;;;22.99;58.89;100380.59;5036813;28;20049;-59
2023/09/15 04:41:37;;;;;;;6.00;1.20;;;;;;;23.05;57.34;100374.81;5046464;28;20056;-59
2023/09/15 04:44:08;;;;;;;4.07;1.40;;;;;;;22.93;57.34;100348.97;5036455;28;20056;-59
2023/09/15 04:46:40;;;;;;;8.90;1.67;;;;;;;22.76;58.33;100315.44;5046412;28;20649;-58
2023/09/15 04:49:11;;;;;;;5.23;1.10;;;;;;;23.01;57.58;100358.19;5036262;28;20075;-58
2023/09/15 04:51:41;;;;;;;8.50;1.20;;;;;;;22.99;57.57;100361.94;5046314;28;20080;-61
2023/09/15 04:54:12;;;;;;;9.30;1.57;;;;;;;23.00;58.12;100364.47;5036451;28;20554;-59
2023/09/15 04:56:42;;;;;;;4.13;1.30;;;;;;;23.01;57.67;100357.31;5046352;28;20549;-59
2023/09/15 04:59:17;;;;;;;6.67;1.27;;;;;;;22.88;56.54;100351.09;5036138;28;20131;-61
2023/09/15 05:01:49;;;;;;;5.20;1.33;;;;;;;22.63;56.52;100315.41;5046155;28;20055;-57
2023/09/15 05:04:20;;;;;;;3.60;1.17;;;;;;;22.80;55.79;100355.09;5035820;28;20127;-59
2023/09/15 05:06:51;;;;;;;4.60;1.10;;;;;;;22.80;57.06;100349.78;5045953;28;20097;-59
2023/09/15 05:09:21;;;;;;;9.73;1.20;;;;;;;22.77;56.40;100349.13;5036605;28;20406;-59
2023/09/15 05:11:53;;;;;;;3.90;1.27;;;;;;;22.69;57.43;100346.97;5046306;28;20037;-60
2023/09/15 05:14:23;;;;;;;4.33;1.10;;;;;;;22.41;57.19;100299.97;5034897;28;20053;-58
2023/09/15 05:16:56;;;;;;;3.50;0.90;;;;;;;22.73;57.95;100340.47;5045895;28;20047;-58
2023/09/15 05:19:26;;;;;;;3.13;0.93;;;;;;;22.74;58.27;100323.56;5035677;28;20044;-58
2023/09/15 05:21:57;;;;;;;8.67;1.50;;;;;;;22.67;57.46;100306.28;5045779;28;20036;-57
2023/09/15 05:24:27;;;;;;;4.13;1.10;;;;;;;22.69;57.21;100320.34;5035921;28;20064;-59
2023/09/15 05:26:58;;;;;;;4.73;1.63;;;;;;;22.73;57.29;100308.50;5046170;28;20462;-60
2023/09/15 05:29:28;;;;;;;7.50;1.33;;;;;;;22.74;57.43;100306.69;5034929;28;20052;-59
2023/09/15 05:32:00;;;;;;;6.00;1.47;;;;;;;22.70;57.09;100300.72;5045301;28;20374;-61
2023/09/15 05:34:31;;;;;;;2.17;1.00;;;;;;;22.70;56.80;100295.41;5035080;28;20139;-58
2023/09/15 05:37:03;;;;;;;5.23;1.10;;;;;;;22.44;56.73;100257.19;5045406;28;20071;-59
2023/09/15 05:39:33;;;;;;;5.63;1.37;;;;;;;22.64;56.96;100285.16;5016289;28;20573;-60
2023/09/15 05:42:04;;;;;;;5.87;1.30;;;;;;;22.68;57.39;100260.03;5020136;28;20134;-61
2023/09/15 05:44:35;;;;;;;4.07;1.90;;;;;;;22.65;57.44;100260.22;5024945;28;20367;-61
2023/09/15 05:47:07;;;;;;;9.40;2.10;;;;;;;22.61;57.36;100254.28;5015217;28;20053;-60
2023/09/15 05:49:38;;;;;;;11.80;2.53;;;;;;;22.47;57.37;100232.19;5025414;28;20059;-58
2023/09/15 05:52:08;;;;;;;4.90;1.70;;;;;;;22.69;57.36;100275.06;5015121;28;20363;-58
2023/09/15 05:54:39;;;;;;;9.50;1.87;;;;;;;22.69;57.34;100288.38;5025370;28;20580;-60
2023/09/15 05:57:10;;;;;;;7.90;1.60;;;;;;;22.68;56.76;100284.00;5015486;28;20066;-59
2023/09/15 05:59:40;;;;;;;5.70;1.47;;;;;;;22.68;57.34;100291.13;5025477;28;20049;-58
2023/09/15 06:02:13;;;;;;;2.60;1.17;;;;;;;22.63;57.94;100280.78;5016271;28;20122;-57
2023/09/15 06:04:48;;;;;;;4.10;1.23;;;;;;;22.47;57.55;100267.63;5026055;28;20076;-61
2023/09/15 06:07:20;;;;;;;11.03;2.10;;;;;;;22.61;58.65;100285.34;5015894;28;20051;-60
2023/09/15 06:09:51;;;;;;;4.13;1.10;;;;;;;22.57;58.69;100270.56;5025944;28;20470;-60
2023/09/15 06:12:21;;;;;;;5.50;1.50;;;;;;;22.58;58.26;100280.25;5034422;28;20140;-60
2023/09/15 06:14:52;;;;;;;7.47;1.40;;;;;;;22.54;58.83;100289.38;5044661;28;20494;-58
2023/09/15 06:17:24;;;;;;;7.13;1.40;;;;;;;22.53;59.02;100287.69;5035019;28;20041;-60
2023/09/15 06:19:54;;;;;;;3.50;1.40;;;;;;;22.51;58.99;100294.91;5045030;28;20113;-59
2023/09/15 06:22:25;;;;;;;6.67;1.33;;;;;;;22.47;58.90;100290.75;5034543;28;20125;-61
2023/09/15 06:24:55;;;;;;;5.77;1.27;;;;;;;22.42;59.31;100284.88;5044253;28;20525;-60
2023/09/15 06:27:26;;;;;;;3.77;1.30;;;;;;;22.32;58.60;100285.47;5034344;28;20091;-59
2023/09/15 06:29:57;;;;;;;8.47;1.50;;;;;;;22.36;59.07;100286.97;5045178;28;20044;-58
2023/09/15 06:32:29;;;;;;;7.43;1.70;;;;;;;22.30;56.90;100281.19;5034682;28;20049;-59
2023/09/15 06:34:59;;;;;;;6.00;1.37;;;;;;;22.26;56.39;100275.19;5044442;28;20048;-60
2023/09/15 06:37:30;;;;;;;5.07;1.20;;;;;;;22.19;57.14;100276.53;5034258;28;20036;-59
2023/09/15 06:40:00;;;;;;;5.13;1.30;;;;;;;22.18;57.37;100274.81;5044491;28;20059;-59
2023/09/15 06:42:31;;;;;;;5.13;1.50;;;;;;;22.17;57.31;100286.44;5034543;28;20055;-57
2023/09/15 06:45:01;;;;;;;5.73;1.30;;;;;;;22.15;57.24;100275.88;5044846;28;20155;-61
2023/09/15 06:47:34;;;;;;;2.07;0.80;;;;;;;22.12;56.02;100270.75;5034474;28;20517;-59
2023/09/15 06:50:05;;;;;;;4.10;0.97;;;;;;;21.81;55.67;100221.31;5034300;28;20060;-58
2023/09/15 06:52:36;;;;;;;3.50;0.90;;;;;;;21.66;55.49;100211.66;5044315;28;20109;-59
2023/09/15 06:55:06;;;;;;;1.97;1.00;;;;;;;21.96;55.80;100273.53;5034245;28;20049;-61
2023/09/15 06:57:37;;;;;;;6.20;1.17;;;;;;;21.87;55.73;100282.09;5044222;28;20753;-58
2023/09/15 07:00:11;;;;;;;7.60;1.30;;;;;;;21.78;56.36;100280.03;5034505;28;20298;-58
2023/09/15 07:02:44;;;;;;;2.60;1.20;;;;;;;21.75;57.09;100274.91;5044258;28;20048;-59
2023/09/15 07:05:14;;;;;;;3.97;1.23;;;;;;;21.70;57.48;100266.34;5034238;28;20597;-62
2023/09/15 07:07:45;;;;;;;2.47;1.20;;;;;;;21.61;57.55;100256.28;5043667;28;20290;-58
2023/09/15 07:10:15;;;;;;;5.27;1.03;;;;;;;21.56;58.18;100263.69;5033800;28;20352;-59
2023/09/15 07:12:46;;;;;;;3.10;1.10;;;;;;;21.48;58.32;100267.69;5044355;28;20302;-60
2023/09/15 07:15:16;;;;;;;3.43;1.10;;;;;;;21.42;58.89;100261.91;5034746;28;20278;-60
2023/09/15 07:17:48;;;;;;;6.07;1.40;;;;;;;21.37;59.53;100274.56;5045035;28;20628;-59
2023/09/15 07:20:19;;;;;;;5.97;1.10;;;;;;;21.37;59.84;100272.78;5034050;28;20291;-58
2023/09/15 07:22:51;;;;;;;7.23;2.90;;;;;;;21.32;60.50;100266.91;5044180;28;20270;-59
2023/09/15 07:25:22;;;;;;;19.47;7.57;;;;;;;21.26;61.08;100267.25;5034311;28;20295;-58
2023/09/15 07:27:52;;;;;;;11.50;5.80;;;;;;;21.23;61.55;100278.06;5046417;28;20725;-59
2023/09/15 07:30:23;;;;;;;21.10;3.60;;;;;;;21.14;62.14;100283.94;5038324;28;20343;-58
2023/09/15 07:32:55;;;;;;;5.13;2.17;;;;;;;21.06;62.84;100279.94;5047890;28;20792;-58
2023/09/15 07:35:26;;;;;;;4.87;1.63;;;;;;;20.96;63.16;100281.44;5038097;28;20282;-59
2023/09/15 07:37:56;;;;;;;8.53;1.30;;;;;;;20.78;63.45;100271.91;5047757;28;20283;-60
2023/09/15 07:40:27;;;;;;;9.90;1.40;;;;;;;20.81;63.86;100292.97;5037277;28;20297;-58
2023/09/15 07:42:57;;;;;;;5.53;1.67;;;;;;;20.47;64.21;100263.03;5047525;28;20609;-60
2023/09/15 07:45:28;;;;;;;5.93;1.60;;;;;;;20.42;64.40;100262.44;5037215;28;20745;-60
2023/09/15 07:48:00;;;;;;;7.80;1.50;;;;;;;20.58;64.82;100324.34;5048417;28;20369;-60
2023/09/15 07:50:33;;;;;;;6.13;1.50;;;;;;;20.49;65.42;100324.81;5037108;28;20589;-58
2023/09/15 07:53:03;;;;;;;8.83;1.50;;;;;;;20.42;65.15;100319.03;5043670;28;20290;-58
2023/09/15 07:55:34;;;;;;;2.63;1.07;;;;;;;20.24;65.38;100304.13;5047307;28;20293;-58
2023/09/15 07:58:05;;;;;;;3.47;1.20;;;;;;;20.22;65.80;100320.16;5037317;28;20621;-59
2023/09/15 08:00:35;;;;;;;9.33;2.03;;;;;;;20.14;66.39;100332.09;5047515;28;20291;-62
2023/09/15 08:03:08;;;;;;;7.33;1.20;;;;;;;19.93;67.13;100312.94;5037208;28;20596;-61
2023/09/15 08:05:38;;;;;;;7.40;1.60;;;;;;;19.85;67.32;100323.09;5046919;28;20656;-62
2023/09/15 08:08:09;;;;;;;7.90;1.33;;;;;;;19.81;68.33;100338.31;5036756;28;20294;-61
2023/09/15 08:10:39;;;;;;;4.57;1.60;;;;;;;19.48;69.16;100294.06;5046907;28;20361;-60
2023/09/15 08:13:10;;;;;;;7.17;1.90;;;;;;;19.64;70.14;100331.22;5036751;28;20716;-61
2023/09/15 08:15:41;;;;;;;7.47;2.27;;;;;;;19.27;71.14;100296.06;5046999;28;20601;-62
2023/09/15 08:18:13;;;;;;;14.33;2.37;;;;;;;19.39;71.34;100329.88;5037496;28;20283;-59
2023/09/15 08:20:43;;;;;;;3.90;1.60;;;;;;;19.36;72.04;100322.06;5046741;28;20290;-60
2023/09/15 08:23:14;;;;;;;5.67;1.87;;;;;;;19.26;71.99;100323.47;5036767;28;20780;-60
2023/09/15 08:25:45;;;;;;;8.57;1.70;;;;;;;19.16;72.35;100320.44;5046765;28;20287;-59
2023/09/15 08:28:15;;;;;;;5.47;1.70;;;;;;;19.07;72.77;100309.44;5018615;28;20758;-60
2023/09/15 08:30:49;;;;;;;2.83;1.50;;;;;;;18.88;73.37;100310.38;5027348;28;20307;-62
2023/09/15 08:33:21;;;;;;;3.87;1.30;;;;;;;18.82;73.87;100310.72;5017971;28;20315;-58
2023/09/15 08:35:52;;;;;;;6.87;1.47;;;;;;;18.13;74.73;100216.16;5027058;28;20294;-63
2023/09/15 08:38:23;;;;;;;3.53;1.70;;;;;;;18.63;75.41;100301.94;5016683;28;20299;-61
2023/09/15 08:41:01;;;;;;;6.90;1.80;;;;;;;18.56;76.14;100295.22;5026452;28;20283;-59
2023/09/15 08:43:32;;;;;;;5.37;1.60;;;;;;;18.49;76.78;100298.16;5016800;28;20280;-60
2023/09/15 08:46:05;;;;;;;10.27;1.60;;;;;;;18.46;77.14;100298.31;5025445;28;20275;-61
2023/09/15 08:48:41;;;;;;;5.37;1.63;;;;;;;18.41;77.07;100299.47;5026638;28;20283;-60
2023/09/15 08:51:12;;;;;;;8.50;1.80;;;;;;;18.32;77.35;100303.41;5016700;28;20364;-59
2023/09/15 08:53:43;;;;;;;6.80;1.60;;;;;;;18.31;77.33;100309.63;5026953;28;20302;-59
2023/09/15 08:56:14;;;;;;;4.10;1.40;;;;;;;18.14;77.16;100285.78;5016164;28;20780;-58
2023/09/15 08:58:46;;;;;;;3.70;1.30;;;;;;;18.22;77.31;100310.06;5026369;28;20291;-58
2023/09/15 09:01:18;;;;;;;8.70;1.67;;;;;;;18.14;77.26;100312.22;5015981;28;20370;-59
2023/09/15 09:03:50;;;;;;;5.00;1.60;;;;;;;18.10;77.61;100306.22;5041135;28;20266;-60
2023/09/15 09:06:25;;;;;;;3.67;1.57;;;;;;;17.98;77.35;100297.06;5036284;28;20283;-60
2023/09/15 09:08:56;;;;;;;3.13;1.20;;;;;;;17.96;77.78;100314.78;5046292;28;20279;-60
2023/09/15 09:11:27;;;;;;;7.20;1.77;;;;;;;17.96;78.18;100309.50;5035869;28;20282;-60
2023/09/15 09:13:58;;;;;;;4.43;1.83;;;;;;;17.94;78.09;100316.63;5046058;28;20305;-60
2023/09/15 09:16:31;;;;;;;6.83;1.53;;;;;;;17.94;78.12;100311.34;5035668;28;20353;-62
2023/09/15 09:19:06;;;;;;;11.53;1.83;;;;;;;17.83;78.37;100308.34;5045982;28;20262;-62
2023/09/15 09:21:36;;;;;;;12.23;1.73;;;;;;;17.81;79.06;100318.13;5035487;28;20282;-61
2023/09/15 09:24:09;;;;;;;4.17;1.60;;;;;;;17.71;79.30;100300.94;5036030;28;20344;-60
2023/09/15 09:26:42;;;;;;;5.47;1.53;;;;;;;17.71;79.69;100303.59;5046086;28;20297;-61
2023/09/15 09:29:16;;;;;;;7.43;1.70;;;;;;;17.51;80.32;100278.91;5035303;28;20823;-60
2023/09/15 09:31:52;;;;;;;6.50;1.53;;;;;;;17.61;80.94;100306.63;5045439;28;20427;-59
2023/09/15 09:34:26;;;;;;;6.93;2.00;;;;;;;17.55;81.48;100299.00;5035273;28;20745;-62
2023/09/15 09:37:16;;;;;;;5.67;1.43;;;;;;;17.54;81.91;100305.19;5035531;28;20348;-61
2023/09/15 09:39:48;;;;;;;5.00;1.30;;;;;;;17.54;82.17;100307.84;5045344;28;20270;-60
2023/09/15 09:42:24;;;;;;;5.30;1.50;;;;;;;17.53;82.19;100311.41;5035641;28;20307;-63
2023/09/15 09:45:06;;;;;;;4.77;1.27;;;;;;;17.53;82.37;100315.84;5034794;28;20287;-58
2023/09/15 09:47:37;;;;;;;2.90;1.63;;;;;;;17.53;82.57;100316.69;5045055;28;20340;-62
2023/09/15 09:50:12;;;;;;;8.43;2.10;;;;;;;17.52;82.68;100314.09;5034306;28;20726;-61
2023/09/15 09:52:48;;;;;;;9.37;1.73;;;;;;;17.35;83.10;100304.31;5045345;28;20768;-60
2023/09/15 09:55:23;;;;;;;3.30;1.80;;;;;;;17.46;83.26;100325.81;5034675;28;20368;-62
2023/09/15 09:57:54;;;;;;;6.70;1.90;;;;;;;17.29;83.77;100296.63;5045195;28;20775;-61
2023/09/15 10:00:29;;;;;;;3.23;1.40;;;;;;;17.39;84.14;100311.16;5035261;28;20360;-61
2023/09/15 10:03:00;;;;;;;4.07;1.30;;;;;;;17.38;84.61;100306.81;5045559;28;20279;-63
2023/09/15 10:05:35;;;;;;;2.60;1.40;;;;;;;17.19;85.07;100259.22;5054124;28;20286;-59
2023/09/15 10:08:07;;;;;;;7.17;2.13;;;;;;;17.50;84.60;100306.28;5053737;28;20278;-62
2023/09/15 10:10:41;;;;;;;3.93;1.00;;;;;;;17.54;84.30;100297.25;5064368;28;20301;-59
2023/09/15 10:13:17;;;;;;;9.23;1.80;;;;;;;17.53;84.50;100298.19;5053942;28;20644;-60
2023/09/15 10:15:48;;;;;;;4.77;1.30;;;;;;;17.54;84.61;100299.91;5064545;28;20281;-64
2023/09/15 10:18:21;;;;;;;2.03;1.23;;;;;;;17.54;84.47;100312.25;5054096;28;20278;-60
2023/09/15 10:21:00;;;;;;;5.23;1.50;;;;;;;17.50;84.72;100311.56;5064741;28;20749;-60
2023/09/15 10:23:32;;;;;;;4.03;1.20;;;;;;;17.47;84.76;100314.31;5053822;28;20733;-59
2023/09/15 10:26:04;;;;;;;3.57;1.43;;;;;;;17.17;84.99;100272.50;5062308;28;20098;-62
2023/09/15 10:28:35;;;;;;;4.43;1.40;;;;;;;17.41;84.75;100322.50;5044326;28;20279;-61
2023/09/15 10:31:24;;;;;;;5.17;1.30;;;;;;;17.38;85.10;100314.72;5034258;28;20275;-60
2023/09/15 10:33:55;;;;;;;3.43;1.00;;;;;;;17.32;84.96;100307.91;5044631;28;20577;-59
2023/09/15 10:36:29;;;;;;;5.40;1.70;;;;;;;17.28;85.21;100311.63;5034601;28;20741;-61
2023/09/15 10:39:12;;;;;;;4.70;1.63;;;;;;;17.24;85.43;100310.88;5044154;28;20370;-62
2023/09/15 10:41:43;;;;;;;4.07;1.50;;;;;;;17.20;85.74;100304.03;5033964;28;20271;-60
2023/09/15 10:44:14;;;;;;;5.97;1.30;;;;;;;17.10;86.40;100291.28;5033966;28;20289;-62
2023/09/15 10:46:47;;;;;;;2.70;1.60;;;;;;;16.92;86.55;100274.44;5044315;28;20279;-61
2023/09/15 10:49:20;;;;;;;5.80;1.43;;;;;;;16.95;86.21;100298.09;5034386;28;20283;-59
2023/09/15 10:51:57;;;;;;;7.10;1.57;;;;;;;17.06;86.00;100295.84;5044191;28;20279;-59
2023/09/15 10:54:32;;;;;;;5.53;1.37;;;;;;;17.03;86.36;100306.53;5034078;28;20597;-61
2023/09/15 10:57:03;;;;;;;7.13;1.60;;;;;;;17.01;85.86;100303.09;5044756;28;20282;-59
2023/09/15 10:59:35;;;;;;;9.13;1.40;;;;;;;16.98;85.65;100300.59;5034043;28;20668;-63
2023/09/15 11:02:14;;;;;;;5.57;1.67;;;;;;;16.95;85.58;100298.94;5036154;28;20293;-60
2023/09/15 11:04:48;;;;;;;3.93;1.40;;;;;;;16.93;85.83;100306.06;5048398;28;20768;-61
2023/09/15 11:07:21;;;;;;;5.80;2.07;;;;;;;16.92;86.00;100314.03;5038402;28;20279;-61
2023/09/15 11:09:52;;;;;;;5.97;1.70;;;;;;;16.87;86.17;100310.72;5048283;28;20279;-62
2023/09/15 11:12:25;;;;;;;7.27;1.27;;;;;;;16.70;86.31;100287.66;5038020;28;20284;-59
2023/09/15 11:15:03;;;;;;;10.83;2.10;;;;;;;16.54;88.05;100308.53;5048133;28;20279;-61
2023/09/15 11:17:34;;;;;;;8.23;2.50;;;;;;;16.42;89.93;100316.94;5038106;28;20620;-60
2023/09/15 11:20:11;;;;;;;5.13;1.60;;;;;;;16.30;91.30;100310.34;5037597;28;20290;-58
2023/09/15 11:22:46;;;;;;;5.78;1.38;;;;;;;15.97;91.41;100265.94;5047954;28;20330;-60
2023/09/15 11:25:16;;;;;;;7.83;1.53;;;;;;;16.31;91.38;100317.38;5038038;28;20153;-60
2023/09/15 11:27:49;;;;;;;8.53;2.33;;;;;;;16.14;92.14;100305.69;5047895;28;20271;-60
2023/09/15 11:30:27;;;;;;;8.93;2.43;;;;;;;16.02;93.61;100315.84;5038110;28;20802;-62
2023/09/15 11:33:07;;;;;;;5.57;1.90;;;;;;;15.72;94.27;100266.00;5048121;28;20314;-63
2023/09/15 11:35:38;;;;;;;6.60;2.08;;;;;;;15.91;94.70;100303.94;5037455;28;20275;-61
2023/09/15 11:38:12;;;;;;;8.40;2.00;;;;;;;15.85;95.23;100304.19;5037552;28;20329;-60
2023/09/15 11:40:48;;;;;;;8.73;2.13;;;;;;;15.80;95.77;100295.59;5048286;28;20314;-61
2023/09/15 11:43:21;;;;;;;6.60;2.07;;;;;;;15.77;96.27;100295.69;5037720;28;20283;-60
2023/09/15 11:45:54;;;;;;;9.40;1.87;;;;;;;15.77;95.94;100290.41;5047445;28;20361;-60
2023/09/15 11:48:26;;;;;;;9.53;2.47;;;;;;;15.49;95.43;100233.47;5037348;28;20409;-61